createdAt,value
2023-05-01T00:02:14.556Z,3.53
2023-05-01T00:05:00.374Z,3.38
2023-05-01T00:07:46.291Z,3.20
2023-05-01T00:10:31.831Z,3.47
2023-05-01T00:13:21.766Z,3.83
2023-05-01T00:16:10.475Z,3.90
2023-05-01T00:18:57.620Z,5.05
2023-05-01T00:21:43.351Z,4.50
2023-05-01T00:24:28.764Z,4.80
2023-05-01T00:27:14.528Z,4.88
2023-05-01T00:30:00.522Z,4.55
2023-05-01T00:32:46.243Z,4.53
2023-05-01T00:35:35.623Z,4.60
2023-05-01T00:38:21.163Z,4.68
2023-05-01T00:41:06.777Z,4.80
2023-05-01T00:43:52.740Z,4.47
2023-05-01T00:46:39.147Z,4.22
2023-05-01T00:49:25.422Z,3.67
2023-05-01T00:52:12.976Z,3.72
2023-05-01T00:54:59.506Z,3.85
2023-05-01T00:57:45.874Z,4.25
2023-05-01T01:00:31.225Z,3.85
2023-05-01T01:03:16.981Z,3.92
2023-05-01T01:06:09.557Z,3.67
2023-05-01T01:09:11.391Z,3.78
2023-05-01T01:12:06.581Z,4.20
2023-05-01T01:14:58.620Z,4.18
2023-05-01T01:17:53.155Z,3.58
2023-05-01T01:20:45.415Z,4.20
2023-05-01T01:23:44.822Z,4.47
2023-05-01T01:27:11.526Z,3.35
2023-05-01T01:30:27.149Z,4.28
2023-05-01T01:33:30.354Z,4.18
2023-05-01T01:36:21.342Z,4.43
2023-05-01T01:39:14.580Z,4.38
2023-05-01T01:42:01.526Z,3.90
2023-05-01T01:44:52.717Z,4.30
2023-05-01T01:47:42.316Z,3.78
2023-05-01T01:50:31.199Z,3.78
2023-05-01T01:53:19.765Z,3.83
2023-05-01T01:56:08.581Z,3.95
2023-05-01T01:58:54.524Z,3.63
2023-05-01T02:01:42.225Z,3.92
2023-05-01T02:04:29.347Z,4.30
2023-05-01T02:07:17.067Z,3.42
2023-05-01T02:10:06.916Z,4.07
2023-05-01T02:12:54.895Z,3.58
2023-05-01T02:15:41.662Z,3.38
2023-05-01T02:18:31.005Z,3.30
2023-05-01T02:21:19.527Z,3.45
2023-05-01T02:24:07.153Z,3.83
2023-05-01T02:26:57.637Z,3.75
2023-05-01T02:29:44.360Z,4.00
2023-05-01T02:32:32.074Z,3.85
2023-05-01T02:35:17.928Z,3.85
2023-05-01T02:38:03.661Z,4.07
2023-05-01T02:40:53.555Z,4.07
2023-05-01T02:43:42.763Z,4.10
2023-05-01T02:46:29.847Z,3.70
2023-05-01T02:49:17.212Z,3.83
2023-05-01T02:52:04.556Z,4.10
2023-05-01T02:54:51.668Z,4.00
2023-05-01T02:57:38.423Z,3.60
2023-05-01T03:00:25.616Z,3.55
2023-05-01T03:03:12.078Z,3.67
2023-05-01T03:05:57.640Z,4.22
2023-05-01T03:08:43.694Z,3.65
2023-05-01T03:11:29.092Z,3.90
2023-05-01T03:14:14.658Z,3.90
2023-05-01T03:17:01.953Z,3.88
2023-05-01T03:19:49.569Z,3.67
2023-05-01T03:22:35.273Z,4.55
2023-05-01T03:25:21.252Z,4.05
2023-05-01T03:28:07.250Z,3.70
2023-05-01T03:30:53.628Z,3.80
2023-05-01T03:33:41.541Z,3.72
2023-05-01T03:36:28.359Z,3.42
2023-05-01T03:39:14.606Z,3.63
2023-05-01T03:42:26.490Z,3.95
2023-05-01T03:45:19.099Z,3.33
2023-05-01T03:48:06.015Z,3.30
2023-05-01T03:50:53.337Z,3.45
2023-05-01T03:53:39.261Z,3.50
2023-05-01T03:56:27.435Z,3.38
2023-05-01T03:59:14.300Z,3.10
2023-05-01T04:01:59.992Z,3.33
2023-05-01T04:04:47.869Z,3.65
2023-05-01T04:07:35.482Z,3.47
2023-05-01T04:10:21.839Z,3.35
2023-05-01T04:13:14.364Z,3.30
2023-05-01T04:16:00.329Z,3.22
2023-05-01T04:18:47.221Z,3.67
2023-05-01T04:21:33.358Z,3.55
2023-05-01T04:24:20.563Z,3.63
2023-05-01T04:27:06.316Z,3.60
2023-05-01T04:29:52.291Z,3.22
2023-05-01T04:32:38.237Z,3.35
2023-05-01T04:35:24.482Z,3.50
2023-05-01T04:38:10.937Z,2.97
2023-05-01T04:40:59.512Z,3.22
2023-05-01T04:43:45.494Z,3.17
2023-05-01T04:46:33.619Z,3.50
2023-05-01T04:49:21.272Z,3.55
2023-05-01T04:52:07.228Z,3.95
2023-05-01T04:55:09.567Z,4.03
2023-05-01T04:58:04.713Z,3.35
2023-05-01T05:00:51.696Z,3.58
2023-05-01T05:03:40.780Z,3.70
2023-05-01T05:06:28.968Z,4.15
2023-05-01T05:09:15.684Z,3.35
2023-05-01T05:12:04.630Z,3.95
2023-05-01T05:14:52.220Z,3.67
2023-05-01T05:17:38.414Z,3.78
2023-05-01T05:20:24.702Z,3.38
2023-05-01T05:23:11.422Z,3.75
2023-05-01T05:26:01.395Z,3.22
2023-05-01T05:28:48.155Z,3.42
2023-05-01T05:31:35.781Z,3.50
2023-05-01T05:34:21.705Z,3.70
2023-05-01T05:37:08.408Z,3.70
2023-05-01T05:40:01.313Z,3.63
2023-05-01T05:42:50.966Z,4.18
2023-05-01T05:45:37.363Z,4.03
2023-05-01T05:48:26.323Z,4.20
2023-05-01T05:51:12.550Z,3.80
2023-05-01T05:53:58.557Z,3.83
2023-05-01T05:56:45.006Z,3.83
2023-05-01T05:59:31.083Z,3.67
2023-05-01T06:02:17.102Z,3.47
2023-05-01T06:05:05.061Z,3.60
2023-05-01T06:07:51.255Z,3.40
2023-05-01T06:10:37.483Z,3.75
2023-05-01T06:13:26.756Z,4.05
2023-05-01T06:16:12.408Z,3.72
2023-05-01T06:18:58.441Z,5.30
2023-05-01T06:21:45.618Z,4.20
2023-05-01T06:24:34.553Z,3.72
2023-05-01T06:27:20.495Z,3.20
2023-05-01T06:30:08.907Z,3.88
2023-05-01T06:32:57.004Z,3.17
2023-05-01T06:35:43.047Z,3.55
2023-05-01T06:38:30.743Z,3.50
2023-05-01T06:41:17.017Z,4.03
2023-05-01T06:44:04.948Z,3.35
2023-05-01T06:46:50.746Z,3.33
2023-05-01T06:49:36.548Z,3.72
2023-05-01T06:52:22.910Z,4.10
2023-05-01T06:55:10.595Z,4.30
2023-05-01T06:57:56.489Z,3.95
2023-05-01T07:00:42.067Z,3.97
2023-05-01T07:03:27.975Z,4.03
2023-05-01T07:06:14.157Z,3.70
2023-05-01T07:09:00.253Z,3.42
2023-05-01T07:11:47.375Z,3.60
2023-05-01T07:14:36.102Z,4.20
2023-05-01T07:17:21.851Z,3.35
2023-05-01T07:20:08.625Z,3.80
2023-05-01T07:22:54.556Z,3.40
2023-05-01T07:25:41.453Z,3.67
2023-05-01T07:28:30.336Z,4.15
2023-05-01T07:31:16.561Z,4.05
2023-05-01T07:34:02.633Z,3.53
2023-05-01T07:36:48.708Z,4.18
2023-05-01T07:39:34.680Z,3.83
2023-05-01T07:42:20.855Z,4.75
2023-05-01T07:45:09.286Z,3.65
2023-05-01T07:47:55.559Z,3.80
2023-05-01T07:50:41.492Z,3.83
2023-05-01T07:53:27.460Z,4.38
2023-05-01T07:56:13.215Z,4.25
2023-05-01T07:58:59.021Z,4.43
2023-05-01T08:01:46.112Z,4.50
2023-05-01T08:04:32.060Z,4.93
2023-05-01T08:07:17.926Z,4.90
2023-05-01T08:10:07.540Z,5.00
2023-05-01T08:12:53.325Z,5.35
2023-05-01T08:15:39.415Z,4.75
2023-05-01T08:18:26.894Z,4.82
2023-05-01T08:21:12.570Z,4.03
2023-05-01T08:23:58.493Z,5.28
2023-05-01T08:26:44.408Z,4.57
2023-05-01T08:29:30.282Z,5.30
2023-05-01T08:32:17.287Z,4.63
2023-05-01T08:35:05.147Z,5.05
2023-05-01T08:37:50.640Z,4.43
2023-05-01T08:40:38.219Z,4.38
2023-05-01T08:43:25.044Z,4.43
2023-05-01T08:46:13.217Z,5.18
2023-05-01T08:49:02.129Z,4.78
2023-05-01T08:51:52.967Z,4.68
2023-05-01T08:55:04.970Z,4.35
2023-05-01T08:57:52.346Z,4.43
2023-05-01T09:00:39.503Z,4.70
2023-05-01T09:03:28.278Z,4.45
2023-05-01T09:06:17.846Z,4.20
2023-05-01T09:09:06.276Z,4.93
2023-05-01T09:11:52.534Z,4.15
2023-05-01T09:14:38.366Z,4.18
2023-05-01T09:17:24.522Z,4.80
2023-05-01T09:20:11.409Z,5.18
2023-05-01T09:22:57.746Z,3.97
2023-05-01T09:25:45.225Z,3.60
2023-05-01T09:28:41.695Z,4.10
2023-05-01T09:31:29.079Z,3.55
2023-05-01T09:34:14.954Z,4.35
2023-05-01T09:37:01.060Z,3.53
2023-05-01T09:39:46.927Z,3.90
2023-05-01T09:42:36.015Z,4.35
2023-05-01T09:45:23.400Z,3.80
2023-05-01T09:48:13.076Z,3.95
2023-05-01T09:50:59.290Z,3.67
2023-05-01T09:53:45.533Z,4.13
2023-05-01T09:56:33.006Z,3.60
2023-05-01T09:59:21.293Z,4.25
2023-05-01T10:02:07.274Z,6.05
2023-05-01T10:04:58.655Z,4.25
2023-05-01T10:10:43.749Z,7.65
2023-05-01T10:13:30.817Z,5.32
2023-05-01T10:16:31.377Z,6.40
2023-05-01T10:19:18.058Z,4.60
2023-05-01T10:22:03.717Z,4.55
2023-05-01T10:24:50.426Z,3.97
2023-05-01T10:27:38.789Z,4.22
2023-05-01T10:30:26.324Z,2.95
2023-05-01T10:33:15.010Z,3.83
2023-05-01T10:36:02.357Z,3.75
2023-05-01T10:38:48.536Z,3.80
2023-05-01T10:42:06.238Z,3.78
2023-05-01T10:44:52.106Z,3.78
2023-05-01T10:47:45.273Z,3.33
2023-05-01T10:50:32.855Z,3.78
2023-05-01T10:53:19.083Z,2.95
2023-05-01T10:56:08.764Z,3.55
2023-05-01T10:58:56.454Z,4.40
2023-05-01T11:01:45.362Z,4.25
2023-05-01T11:04:49.716Z,2.55
2023-05-01T11:07:37.352Z,3.15
2023-05-01T11:10:27.179Z,3.13
2023-05-01T11:13:12.950Z,3.42
2023-05-01T11:15:58.559Z,3.25
2023-05-01T11:18:47.810Z,2.97
2023-05-01T11:21:34.872Z,3.20
2023-05-01T11:24:31.833Z,3.05
2023-05-01T11:27:18.373Z,2.63
2023-05-01T11:30:05.628Z,3.22
2023-05-01T11:32:52.033Z,2.80
2023-05-01T11:35:38.143Z,3.42
2023-05-01T11:38:24.175Z,3.47
2023-05-01T11:41:11.459Z,3.03
2023-05-01T11:43:59.217Z,3.83
2023-05-01T11:46:45.114Z,3.67
2023-05-01T11:49:30.871Z,2.83
2023-05-01T11:52:16.838Z,2.80
2023-05-01T11:55:04.062Z,3.10
2023-05-01T11:57:52.616Z,3.58
2023-05-01T12:00:39.574Z,2.10
2023-05-01T12:03:25.565Z,2.08
2023-05-01T12:06:13.390Z,1.80
2023-05-01T12:08:59.662Z,2.05
2023-05-01T12:11:46.288Z,1.65
2023-05-01T12:14:33.477Z,1.80
2023-05-01T12:17:20.054Z,1.88
2023-05-01T12:20:07.254Z,1.85
2023-05-01T12:22:53.152Z,1.88
2023-05-01T12:25:40.829Z,1.70
2023-05-01T12:28:27.736Z,1.60
2023-05-01T12:31:16.316Z,1.83
2023-05-01T12:34:03.425Z,2.25
2023-05-01T12:36:54.730Z,2.30
2023-05-01T12:39:44.638Z,2.00
2023-05-01T12:42:30.463Z,1.92
2023-05-01T12:45:16.460Z,1.73
2023-05-01T12:48:11.737Z,2.20
2023-05-01T12:50:57.978Z,2.10
2023-05-01T12:53:44.499Z,2.40
2023-05-01T12:56:30.385Z,2.40
2023-05-01T12:59:23.723Z,3.22
2023-05-01T13:02:11.468Z,2.78
2023-05-01T13:05:08.062Z,4.72
2023-05-01T13:07:53.877Z,3.60
2023-05-01T13:10:39.877Z,3.33
2023-05-01T13:13:27.536Z,3.90
2023-05-01T13:16:15.106Z,5.25
2023-05-01T13:19:01.324Z,4.70
2023-05-01T13:21:49.753Z,5.05
2023-05-01T13:24:37.960Z,5.05
2023-05-01T13:27:24.149Z,5.22
2023-05-01T13:30:12.604Z,5.30
2023-05-01T13:32:58.669Z,5.03
2023-05-01T13:35:44.394Z,5.40
2023-05-01T13:38:41.545Z,4.70
2023-05-01T13:41:27.962Z,5.30
2023-05-01T13:44:13.764Z,4.75
2023-05-01T13:47:03.149Z,4.90
2023-05-01T13:49:49.168Z,5.00
2023-05-01T13:52:43.033Z,5.82
2023-05-01T13:55:30.003Z,4.78
2023-05-01T13:58:15.590Z,4.60
2023-05-01T14:01:01.605Z,5.10
2023-05-01T14:03:48.261Z,5.40
2023-05-01T14:06:36.304Z,6.10
2023-05-01T14:09:23.029Z,5.10
2023-05-01T14:12:10.522Z,4.82
2023-05-01T14:14:57.019Z,5.00
2023-05-01T14:17:42.926Z,4.40
2023-05-01T14:20:28.316Z,4.78
2023-05-01T14:23:16.759Z,4.88
2023-05-01T14:26:03.396Z,4.78
2023-05-01T14:28:51.006Z,4.53
2023-05-01T14:31:37.029Z,5.05
2023-05-01T14:34:23.215Z,4.95
2023-05-01T14:37:09.892Z,5.13
2023-05-01T14:39:56.512Z,5.13
2023-05-01T14:42:43.235Z,4.88
2023-05-01T14:45:30.860Z,5.07
2023-05-01T14:48:21.991Z,5.93
2023-05-01T14:53:56.203Z,5.18
2023-05-01T14:56:43.705Z,4.75
2023-05-01T14:59:30.492Z,4.30
2023-05-01T15:02:17.890Z,4.35
2023-05-01T15:05:03.809Z,3.38
2023-05-01T15:07:49.372Z,3.90
2023-05-01T15:10:34.983Z,4.30
2023-05-01T15:13:21.331Z,3.50
2023-05-01T15:16:08.282Z,3.22
2023-05-01T15:18:56.372Z,2.88
2023-05-01T15:21:42.160Z,3.10
2023-05-01T15:24:27.731Z,3.25
2023-05-01T15:27:13.806Z,3.47
2023-05-01T15:29:59.898Z,3.10
2023-05-01T15:32:46.287Z,3.70
2023-05-01T15:35:34.243Z,3.20
2023-05-01T15:38:23.093Z,3.35
2023-05-01T15:41:09.303Z,3.80
2023-05-01T15:43:55.142Z,3.63
2023-05-01T15:46:41.483Z,3.97
2023-05-01T15:49:27.494Z,4.25
2023-05-01T15:52:14.625Z,3.70
2023-05-01T15:55:00.720Z,4.47
2023-05-01T15:57:49.850Z,4.35
2023-05-01T16:00:38.309Z,3.88
2023-05-01T16:03:24.539Z,4.32
2023-05-01T16:06:11.477Z,4.15
2023-05-01T16:08:59.922Z,4.53
2023-05-01T16:11:45.751Z,4.82
2023-05-01T16:14:31.689Z,4.50
2023-05-01T16:17:19.584Z,4.70
2023-05-01T16:20:19.705Z,4.47
2023-05-01T16:23:06.154Z,4.20
2023-05-01T16:25:53.721Z,4.40
2023-05-01T16:28:40.248Z,4.75
2023-05-01T16:31:27.505Z,5.07
2023-05-01T16:34:15.082Z,5.05
2023-05-01T16:37:00.721Z,5.43
2023-05-01T16:39:47.961Z,5.32
2023-05-01T16:42:38.891Z,5.75
2023-05-01T16:45:24.666Z,5.68
2023-05-01T16:48:11.610Z,6.35
2023-05-01T16:50:57.600Z,6.18
2023-05-01T16:53:43.674Z,5.60
2023-05-01T16:56:29.525Z,5.63
2023-05-01T16:59:17.093Z,6.00
2023-05-01T17:02:02.826Z,5.78
2023-05-01T17:04:49.153Z,7.18
2023-05-01T17:07:35.185Z,6.75
2023-05-01T17:10:22.280Z,7.20
2023-05-01T17:13:08.341Z,6.70
2023-05-01T17:15:56.298Z,7.38
2023-05-01T17:18:42.783Z,7.55
2023-05-01T17:21:29.265Z,7.28
2023-05-01T17:24:15.218Z,7.38
2023-05-01T17:27:01.524Z,7.85
2023-05-01T17:29:47.904Z,7.63
2023-05-01T17:32:37.292Z,8.32
2023-05-01T17:35:23.860Z,9.93
2023-05-01T17:38:09.594Z,10.07
2023-05-01T17:40:55.181Z,10.02
2023-05-01T17:43:41.606Z,10.00
2023-05-01T17:46:27.838Z,11.45
2023-05-01T17:49:15.388Z,10.23
2023-05-01T17:52:02.419Z,10.57
2023-05-01T17:54:48.291Z,11.85
2023-05-01T17:57:34.238Z,11.90
2023-05-01T18:00:21.287Z,14.85
2023-05-01T18:03:07.608Z,11.82
2023-05-01T18:05:55.162Z,11.27
2023-05-01T18:08:41.543Z,11.57
2023-05-01T18:11:28.046Z,12.23
2023-05-01T18:14:14.620Z,11.75
2023-05-01T18:17:00.678Z,11.90
2023-05-01T18:19:49.181Z,11.88
2023-05-01T18:22:37.651Z,11.10
2023-05-01T18:25:23.724Z,11.93
2023-05-01T18:28:10.277Z,12.23
2023-05-01T18:30:56.435Z,13.88
2023-05-01T18:33:42.422Z,12.25
2023-05-01T18:36:28.522Z,12.32
2023-05-01T18:39:15.857Z,11.70
2023-05-01T18:42:03.704Z,12.77
2023-05-01T18:44:50.126Z,12.65
2023-05-01T18:47:36.151Z,12.82
2023-05-01T18:50:22.094Z,13.63
2023-05-01T18:53:07.777Z,12.57
2023-05-01T18:55:55.330Z,13.90
2023-05-01T18:58:41.294Z,13.15
2023-05-01T19:01:27.040Z,14.90
2023-05-01T19:04:12.782Z,14.45
2023-05-01T19:06:59.113Z,14.90
2023-05-01T19:09:45.884Z,14.90
2023-05-01T19:12:33.081Z,14.20
2023-05-01T19:15:19.653Z,14.50
2023-05-01T19:18:09.571Z,14.52
2023-05-01T19:20:55.843Z,14.30
2023-05-01T19:23:45.039Z,15.43
2023-05-01T19:26:31.472Z,16.40
2023-05-01T19:29:18.980Z,17.02
2023-05-01T19:32:04.778Z,16.23
2023-05-01T19:34:50.760Z,15.68
2023-05-01T19:37:36.600Z,15.93
2023-05-01T19:40:22.956Z,15.65
2023-05-01T19:43:09.037Z,16.42
2023-05-01T19:45:56.740Z,17.17
2023-05-01T19:48:42.417Z,16.77
2023-05-01T19:51:28.656Z,14.63
2023-05-01T19:54:14.371Z,16.00
2023-05-01T19:57:00.532Z,16.60
2023-05-01T19:59:51.755Z,17.30
2023-05-01T20:02:40.441Z,16.88
2023-05-01T20:05:28.219Z,18.27
2023-05-01T20:08:14.485Z,18.38
2023-05-01T20:11:01.639Z,18.25
2023-05-01T20:13:47.686Z,18.90
2023-05-01T20:16:35.826Z,19.70
2023-05-01T20:19:23.135Z,18.58
2023-05-01T20:22:09.078Z,19.75
2023-05-01T20:24:55.085Z,20.17
2023-05-01T20:27:42.567Z,20.50
2023-05-01T20:30:28.232Z,20.38
2023-05-01T20:33:20.646Z,20.75
2023-05-01T20:36:08.123Z,21.10
2023-05-01T20:38:54.145Z,21.90
2023-05-01T20:41:40.056Z,20.88
2023-05-01T20:44:25.941Z,22.73
2023-05-01T20:47:11.997Z,22.65
2023-05-01T20:49:58.143Z,23.13
2023-05-01T20:52:45.595Z,24.17
2023-05-01T20:55:31.274Z,24.58
2023-05-01T20:58:17.065Z,25.02
2023-05-01T21:01:02.837Z,25.58
2023-05-01T21:03:48.500Z,25.70
2023-05-01T21:06:34.604Z,27.30
2023-05-01T21:09:22.080Z,26.48
2023-05-01T21:12:08.037Z,25.13
2023-05-01T21:14:53.983Z,27.40
2023-05-01T21:17:41.160Z,26.38
2023-05-01T21:20:31.068Z,27.05
2023-05-01T21:23:17.548Z,27.15
2023-05-01T21:26:04.940Z,26.30
2023-05-01T21:28:50.589Z,26.30
2023-05-01T21:31:37.051Z,26.70
2023-05-01T21:34:23.441Z,27.42
2023-05-01T21:37:09.068Z,26.80
2023-05-01T21:39:54.670Z,25.60
2023-05-01T21:42:42.568Z,26.48
2023-05-01T21:45:28.295Z,25.40
2023-05-01T21:48:16.264Z,24.58
2023-05-01T21:51:02.436Z,24.17
2023-05-01T21:53:48.297Z,24.80
2023-05-01T21:56:34.800Z,24.55
2023-05-01T21:59:22.155Z,24.25
2023-05-01T22:02:09.649Z,24.73
2023-05-01T22:04:55.689Z,24.30
2023-05-01T22:07:42.957Z,24.65
2023-05-01T22:10:28.689Z,24.73
2023-05-01T22:13:14.431Z,24.73
2023-05-01T22:16:01.643Z,25.13
2023-05-01T22:18:49.815Z,24.27
2023-05-01T22:21:35.682Z,25.00
2023-05-01T22:24:21.675Z,24.85
2023-05-01T22:27:07.685Z,26.15
2023-05-01T22:29:53.407Z,26.33
2023-05-01T22:32:40.417Z,27.10
2023-05-01T22:35:26.455Z,26.13
2023-05-01T22:38:12.712Z,26.00
2023-05-01T22:40:58.116Z,26.73
2023-05-01T22:43:43.741Z,26.95
2023-05-01T22:46:29.437Z,27.73
2023-05-01T22:49:16.828Z,26.10
2023-05-01T22:52:02.727Z,27.10
2023-05-01T22:54:50.495Z,27.50
2023-05-01T22:57:36.324Z,27.10
2023-05-01T23:00:23.468Z,25.20
2023-05-01T23:03:09.570Z,25.10
2023-05-01T23:05:56.870Z,24.15
2023-05-01T23:08:42.721Z,23.73
2023-05-01T23:11:31.590Z,23.27
2023-05-01T23:14:18.163Z,20.63
2023-05-01T23:17:04.806Z,19.45
2023-05-01T23:19:50.730Z,18.83
2023-05-01T23:22:40.507Z,17.50
2023-05-01T23:25:26.618Z,17.67
2023-05-01T23:28:19.231Z,17.02
2023-05-01T23:31:05.296Z,17.95
2023-05-01T23:33:51.758Z,16.30
2023-05-01T23:36:37.452Z,16.23
2023-05-01T23:39:24.478Z,17.00
2023-05-01T23:42:10.347Z,16.02
2023-05-01T23:44:56.530Z,15.73
2023-05-01T23:47:42.253Z,14.68
2023-05-01T23:50:27.806Z,15.25
2023-05-01T23:53:13.899Z,15.10
2023-05-01T23:56:01.113Z,15.18
2023-05-01T23:58:46.817Z,14.40
